createdAt,value
2018-09-13T00:02:03.427Z,19.50
2018-09-13T00:04:30.864Z,19.40
2018-09-13T00:06:58.319Z,19.40
2018-09-13T00:09:25.837Z,19.40
2018-09-13T00:11:53.219Z,19.40
2018-09-13T00:14:20.641Z,19.30
2018-09-13T00:16:48.135Z,19.30
2018-09-13T00:19:15.624Z,19.40
2018-09-13T00:21:43.125Z,19.30
2018-09-13T00:24:10.562Z,19.40
2018-09-13T00:26:38.016Z,19.30
2018-09-13T00:29:05.456Z,19.30
2018-09-13T00:31:32.904Z,19.30
2018-09-13T00:34:00.358Z,19.20
2018-09-13T00:36:27.812Z,19.20
2018-09-13T00:38:55.354Z,19.10
2018-09-13T00:41:22.777Z,19.20
2018-09-13T00:43:50.272Z,19.20
2018-09-13T00:46:17.715Z,19.10
2018-09-13T00:48:45.159Z,19.10
2018-09-13T00:51:12.660Z,19.10
2018-09-13T00:53:40.096Z,19.00
2018-09-13T00:56:07.503Z,19.00
2018-09-13T00:58:34.972Z,19.00
2018-09-13T01:01:02.374Z,19.00
2018-09-13T01:03:29.835Z,19.10
2018-09-13T01:05:57.300Z,19.20
2018-09-13T01:08:24.740Z,19.10
2018-09-13T01:10:52.163Z,19.10
2018-09-13T01:13:19.568Z,19.10
2018-09-13T01:15:47.018Z,19.10
2018-09-13T01:18:14.423Z,19.10
2018-09-13T01:20:41.888Z,19.10
2018-09-13T01:23:09.406Z,19.00
2018-09-13T01:25:36.816Z,19.10
2018-09-13T01:28:04.248Z,19.20
2018-09-13T01:30:31.684Z,19.10
2018-09-13T01:32:59.151Z,19.10
2018-09-13T01:35:26.591Z,19.10
2018-09-13T01:37:54.125Z,19.00
2018-09-13T01:40:21.546Z,19.10
2018-09-13T01:42:48.989Z,19.10
2018-09-13T01:45:16.413Z,19.10
2018-09-13T01:47:43.832Z,19.20
2018-09-13T01:50:11.410Z,19.10
2018-09-13T01:52:38.845Z,19.00
2018-09-13T01:55:06.301Z,19.00
2018-09-13T01:57:33.721Z,18.90
2018-09-13T02:00:01.129Z,18.90
2018-09-13T02:02:28.557Z,18.90
2018-09-13T02:04:55.995Z,18.80
2018-09-13T02:07:23.531Z,18.90
2018-09-13T02:09:50.957Z,18.90
2018-09-13T02:12:18.423Z,18.90
2018-09-13T02:14:45.828Z,18.90
2018-09-13T02:17:13.225Z,18.90
2018-09-13T02:19:40.660Z,18.90
2018-09-13T02:22:08.093Z,18.90
2018-09-13T02:24:35.521Z,18.90
2018-09-13T02:27:02.979Z,18.80
2018-09-13T02:29:30.400Z,18.90
2018-09-13T02:31:57.830Z,18.90
2018-09-13T02:34:25.289Z,18.90
2018-09-13T02:36:52.697Z,18.90
2018-09-13T02:39:20.141Z,18.80
2018-09-13T02:41:47.578Z,18.90
2018-09-13T02:44:15.020Z,18.90
2018-09-13T02:46:42.440Z,18.90
2018-09-13T02:49:10.507Z,18.90
2018-09-13T02:51:37.985Z,18.90
2018-09-13T02:54:05.501Z,18.90
2018-09-13T02:56:32.902Z,18.90
2018-09-13T02:59:00.362Z,18.90
2018-09-13T03:01:27.751Z,18.90
2018-09-13T03:03:55.221Z,18.90
2018-09-13T03:06:22.616Z,18.90
2018-09-13T03:08:50.039Z,18.90
2018-09-13T03:11:17.435Z,18.80
2018-09-13T03:13:44.856Z,18.80
2018-09-13T03:16:17.972Z,18.80
2018-09-13T03:18:45.405Z,18.80
2018-09-13T03:21:12.917Z,18.70
2018-09-13T03:23:40.388Z,18.80
2018-09-13T03:26:07.927Z,18.70
2018-09-13T03:28:35.429Z,18.70
2018-09-13T03:31:02.936Z,18.70
2018-09-13T03:33:30.404Z,18.70
2018-09-13T03:35:58.904Z,18.60
2018-09-13T03:38:26.338Z,18.70
2018-09-13T03:40:53.819Z,18.70
2018-09-13T03:43:21.241Z,18.70
2018-09-13T03:45:48.720Z,18.60
2018-09-13T03:48:16.177Z,18.60
2018-09-13T03:50:43.605Z,18.50
2018-09-13T03:53:16.919Z,18.40
2018-09-13T03:55:46.519Z,18.40
2018-09-13T03:58:14.120Z,18.40
2018-09-13T04:00:41.570Z,18.40
2018-09-13T04:03:09.096Z,18.40
2018-09-13T04:05:36.464Z,18.40
2018-09-13T04:08:08.946Z,18.40
2018-09-13T04:10:36.399Z,18.40
2018-09-13T04:13:03.824Z,18.40
2018-09-13T04:15:31.269Z,18.50
2018-09-13T04:17:58.661Z,18.50
2018-09-13T04:20:26.074Z,18.50
2018-09-13T04:22:53.509Z,18.40
2018-09-13T04:25:21.022Z,18.40
2018-09-13T04:27:48.496Z,18.20
2018-09-13T04:30:15.925Z,18.30
2018-09-13T04:32:43.374Z,18.20
2018-09-13T04:35:10.795Z,18.30
2018-09-13T04:37:38.212Z,18.30
2018-09-13T04:40:05.667Z,18.30
2018-09-13T04:42:33.064Z,18.30
2018-09-13T04:45:00.493Z,18.30
2018-09-13T04:47:27.941Z,18.30
2018-09-13T04:49:56.457Z,18.30
2018-09-13T04:52:24.897Z,18.40
2018-09-13T04:54:52.305Z,18.40
2018-09-13T04:57:19.714Z,18.40
2018-09-13T04:59:47.137Z,18.40
2018-09-13T05:02:14.621Z,18.40
2018-09-13T05:04:42.041Z,18.40
2018-09-13T05:07:10.503Z,18.40
2018-09-13T05:09:37.928Z,18.40
2018-09-13T05:12:05.363Z,18.30
2018-09-13T05:14:32.790Z,18.30
2018-09-13T05:17:00.203Z,18.30
2018-09-13T05:19:27.617Z,18.30
2018-09-13T05:21:55.085Z,18.30
2018-09-13T05:24:22.607Z,18.30
2018-09-13T05:26:49.951Z,18.30
2018-09-13T05:29:17.372Z,18.30
2018-09-13T05:31:44.862Z,18.30
2018-09-13T05:34:12.253Z,18.20
2018-09-13T05:36:39.775Z,18.30
2018-09-13T05:39:07.675Z,18.30
2018-09-13T05:41:35.201Z,18.30
2018-09-13T05:44:02.608Z,18.30
2018-09-13T05:46:30.009Z,18.40
2018-09-13T05:48:57.429Z,18.40
2018-09-13T05:51:24.850Z,18.30
2018-09-13T05:53:52.376Z,18.40
2018-09-13T05:56:19.841Z,18.40
2018-09-13T05:58:47.300Z,18.40
2018-09-13T06:01:14.814Z,18.50
2018-09-13T06:03:42.173Z,18.50
2018-09-13T06:06:09.608Z,18.50
2018-09-13T06:08:37.040Z,18.50
2018-09-13T06:11:04.538Z,18.60
2018-09-13T06:13:32.011Z,18.70
2018-09-13T06:16:00.584Z,18.60
2018-09-13T06:18:27.993Z,18.70
2018-09-13T06:20:55.425Z,18.60
2018-09-13T06:23:22.877Z,18.70
2018-09-13T06:25:50.370Z,18.70
2018-09-13T06:28:17.895Z,18.80
2018-09-13T06:30:45.346Z,18.80
2018-09-13T06:33:12.865Z,18.90
2018-09-13T06:35:40.312Z,18.90
2018-09-13T06:38:07.709Z,18.90
2018-09-13T06:40:35.108Z,19.00
2018-09-13T06:43:02.508Z,19.00
2018-09-13T06:45:30.008Z,19.00
2018-09-13T06:47:57.438Z,19.10
2018-09-13T06:50:24.905Z,19.10
2018-09-13T06:52:52.291Z,19.20
2018-09-13T06:55:19.696Z,19.30
2018-09-13T06:57:47.097Z,19.30
2018-09-13T07:00:14.518Z,19.30
2018-09-13T07:02:42.073Z,19.30
2018-09-13T07:05:09.545Z,19.30
2018-09-13T07:07:36.976Z,19.30
2018-09-13T07:10:04.389Z,19.30
2018-09-13T07:12:31.798Z,19.30
2018-09-13T07:14:59.219Z,19.20
2018-09-13T07:17:26.637Z,19.30
2018-09-13T07:19:54.130Z,19.30
2018-09-13T07:22:21.608Z,19.30
2018-09-13T07:24:49.013Z,19.30
2018-09-13T07:27:16.434Z,19.30
2018-09-13T07:29:43.852Z,19.50
2018-09-13T07:32:11.288Z,19.70
2018-09-13T07:34:38.886Z,19.90
2018-09-13T07:37:06.330Z,20.00
2018-09-13T07:39:33.762Z,20.00
2018-09-13T07:42:01.185Z,19.90
2018-09-13T07:44:28.685Z,19.80
2018-09-13T07:46:56.120Z,19.90
2018-09-13T07:49:23.616Z,20.10
2018-09-13T07:51:50.955Z,20.30
2018-09-13T07:54:18.397Z,20.40
2018-09-13T07:56:45.818Z,20.50
2018-09-13T07:59:13.294Z,20.60
2018-09-13T08:01:40.872Z,20.90
2018-09-13T08:04:08.313Z,21.10
2018-09-13T08:06:36.016Z,21.20
2018-09-13T08:09:04.675Z,21.50
2018-09-13T08:11:32.196Z,21.70
2018-09-13T08:13:59.628Z,21.70
2018-09-13T08:16:27.096Z,21.90
2018-09-13T08:18:54.559Z,22.10
2018-09-13T08:21:21.973Z,22.10
2018-09-13T08:23:49.500Z,22.10
2018-09-13T08:26:16.916Z,22.20
2018-09-13T08:28:44.424Z,22.10
2018-09-13T08:31:11.859Z,22.00
2018-09-13T08:33:39.288Z,22.00
2018-09-13T08:36:06.769Z,22.00
2018-09-13T08:38:34.184Z,21.90
2018-09-13T08:41:01.605Z,21.80
2018-09-13T08:43:29.064Z,21.90
2018-09-13T08:45:56.637Z,21.90
2018-09-13T08:48:24.088Z,21.80
2018-09-13T08:50:51.748Z,21.70
2018-09-13T08:53:18.973Z,21.80
2018-09-13T08:55:46.381Z,21.80
2018-09-13T08:58:13.864Z,21.90
2018-09-13T09:00:41.320Z,21.90
2018-09-13T09:03:08.778Z,22.00
2018-09-13T09:05:36.184Z,22.00
2018-09-13T09:08:03.724Z,22.00
2018-09-13T09:10:31.425Z,22.00
2018-09-13T09:12:58.892Z,21.80
2018-09-13T09:15:26.401Z,21.60
2018-09-13T09:17:53.943Z,21.90
2018-09-13T09:20:21.450Z,22.00
2018-09-13T09:22:48.843Z,22.00
2018-09-13T09:25:16.272Z,22.00
2018-09-13T09:27:43.712Z,22.10
2018-09-13T09:30:11.131Z,22.10
2018-09-13T09:32:38.569Z,22.00
2018-09-13T09:35:06.050Z,21.90
2018-09-13T09:37:33.416Z,22.00
2018-09-13T09:40:00.864Z,21.80
2018-09-13T09:42:28.355Z,21.90
2018-09-13T09:44:55.944Z,21.90
2018-09-13T09:47:23.329Z,21.90
2018-09-13T09:49:50.749Z,21.80
2018-09-13T09:52:18.182Z,21.70
2018-09-13T09:54:45.565Z,21.60
2018-09-13T09:57:13.068Z,21.60
2018-09-13T09:59:41.540Z,21.30
2018-09-13T10:02:14.403Z,21.10
2018-09-13T10:04:41.918Z,21.00
2018-09-13T10:07:09.255Z,21.10
2018-09-13T10:09:36.737Z,21.30
2018-09-13T10:12:04.128Z,21.30
2018-09-13T10:14:31.624Z,21.40
2018-09-13T10:17:04.665Z,21.60
2018-09-13T10:19:37.620Z,21.60
2018-09-13T10:22:10.600Z,21.60
2018-09-13T10:24:43.607Z,21.90
2018-09-13T10:27:16.477Z,22.00
2018-09-13T10:29:49.676Z,22.10
2018-09-13T10:32:22.478Z,22.10
2018-09-13T10:34:55.406Z,22.20
2018-09-13T10:37:28.423Z,22.40
2018-09-13T10:40:01.361Z,22.60
2018-09-13T10:42:34.236Z,22.70
2018-09-13T10:45:07.133Z,22.80
2018-09-13T10:47:42.166Z,22.90
2018-09-13T10:50:12.892Z,23.00
2018-09-13T10:52:42.974Z,23.10
2018-09-13T10:55:10.348Z,23.30
2018-09-13T10:57:42.779Z,23.40
2018-09-13T11:00:10.269Z,23.30
2018-09-13T11:02:37.713Z,23.40
2018-09-13T11:05:05.189Z,23.50
2018-09-13T11:07:32.646Z,23.50
2018-09-13T11:10:00.116Z,23.60
2018-09-13T11:12:31.895Z,23.60
2018-09-13T11:15:03.684Z,23.60
2018-09-13T11:17:31.356Z,23.70
2018-09-13T11:19:58.790Z,23.60
2018-09-13T11:22:26.192Z,23.70
2018-09-13T11:24:53.638Z,23.80
2018-09-13T11:27:21.065Z,23.80
2018-09-13T11:29:48.629Z,23.70
2018-09-13T11:32:16.051Z,23.70
2018-09-13T11:34:44.304Z,23.80
2018-09-13T11:37:14.428Z,23.70
2018-09-13T11:39:41.849Z,23.50
2018-09-13T11:42:09.348Z,23.30
2018-09-13T11:44:36.888Z,23.30
2018-09-13T11:47:04.820Z,23.20
2018-09-13T11:49:32.345Z,23.50
2018-09-13T11:51:59.740Z,23.70
2018-09-13T11:54:27.703Z,23.70
2018-09-13T11:56:54.883Z,23.80
2018-09-13T11:59:22.289Z,24.00
2018-09-13T12:01:49.784Z,24.30
2018-09-13T12:04:17.233Z,24.20
2018-09-13T12:06:44.744Z,24.10
2018-09-13T12:09:13.756Z,24.20
2018-09-13T12:11:41.413Z,24.30
2018-09-13T12:14:09.170Z,24.50
2018-09-13T12:16:36.605Z,24.60
2018-09-13T12:19:05.940Z,24.80
2018-09-13T12:21:33.377Z,24.70
2018-09-13T12:24:00.812Z,24.60
2018-09-13T12:26:28.237Z,24.70
2018-09-13T12:28:55.832Z,24.80
2018-09-13T12:31:23.236Z,24.90
2018-09-13T12:33:50.822Z,25.00
2018-09-13T12:36:18.182Z,25.10
2018-09-13T12:38:45.674Z,24.60
2018-09-13T12:41:13.085Z,24.70
2018-09-13T12:43:40.504Z,24.60
2018-09-13T12:46:07.916Z,24.60
2018-09-13T12:48:35.361Z,24.70
2018-09-13T12:51:02.847Z,24.70
2018-09-13T12:53:30.360Z,24.70
2018-09-13T12:55:57.828Z,24.60
2018-09-13T12:58:26.194Z,24.50
2018-09-13T13:00:53.620Z,24.30
2018-09-13T13:03:21.460Z,24.30
2018-09-13T13:05:49.613Z,24.40
2018-09-13T13:08:17.148Z,24.50
2018-09-13T13:10:44.573Z,24.50
2018-09-13T13:13:12.069Z,24.50
2018-09-13T13:15:39.469Z,24.60
2018-09-13T13:18:07.037Z,24.70
2018-09-13T13:20:34.533Z,24.70
2018-09-13T13:23:02.049Z,24.70
2018-09-13T13:25:29.553Z,24.70
2018-09-13T13:27:57.029Z,24.40
2018-09-13T13:30:24.821Z,24.30
2018-09-13T13:32:52.249Z,24.20
2018-09-13T13:35:19.717Z,24.20
2018-09-13T13:37:47.239Z,24.00
2018-09-13T13:40:14.684Z,24.00
2018-09-13T13:42:42.213Z,24.10
2018-09-13T13:45:09.616Z,24.10
2018-09-13T13:47:37.063Z,24.10
2018-09-13T13:50:04.516Z,24.00
2018-09-13T13:52:32.140Z,24.00
2018-09-13T13:54:59.740Z,23.90
2018-09-13T13:57:27.333Z,23.90
2018-09-13T13:59:55.035Z,24.00
2018-09-13T14:02:22.423Z,23.80
2018-09-13T14:04:49.865Z,23.70
2018-09-13T14:07:17.502Z,23.50
2018-09-13T14:09:45.085Z,23.40
2018-09-13T14:12:12.340Z,23.60
2018-09-13T14:14:39.848Z,23.50
2018-09-13T14:17:07.368Z,23.60
2018-09-13T14:19:34.973Z,23.60
2018-09-13T14:22:02.563Z,23.50
2018-09-13T14:24:30.009Z,23.60
2018-09-13T14:26:57.464Z,23.60
2018-09-13T14:29:24.921Z,23.60
2018-09-13T14:31:52.368Z,23.40
2018-09-13T14:34:19.887Z,23.30
2018-09-13T14:36:47.322Z,23.20
2018-09-13T14:39:14.723Z,23.20
2018-09-13T14:41:42.260Z,23.20
2018-09-13T14:44:09.672Z,23.20
2018-09-13T14:46:37.492Z,23.10
2018-09-13T14:49:05.086Z,22.80
2018-09-13T14:51:32.609Z,23.00
2018-09-13T14:54:00.012Z,23.10
2018-09-13T14:56:27.541Z,23.00
2018-09-13T14:58:55.067Z,23.00
2018-09-13T15:01:22.530Z,23.10
2018-09-13T15:03:50.085Z,23.10
2018-09-13T15:06:17.537Z,23.10
2018-09-13T15:08:45.125Z,23.10
2018-09-13T15:11:12.545Z,23.10
2018-09-13T15:13:39.993Z,23.10
2018-09-13T15:16:07.592Z,23.00
2018-09-13T15:18:35.035Z,22.90
2018-09-13T15:21:02.511Z,22.80
2018-09-13T15:23:30.033Z,22.90
2018-09-13T15:25:57.468Z,23.00
2018-09-13T15:28:24.880Z,23.10
2018-09-13T15:30:52.481Z,23.10
2018-09-13T15:33:19.949Z,23.10
2018-09-13T15:35:47.522Z,23.20
2018-09-13T15:38:14.951Z,23.10
2018-09-13T15:40:42.397Z,23.00
2018-09-13T15:43:10.091Z,23.00
2018-09-13T15:45:37.556Z,22.90
2018-09-13T15:48:05.017Z,23.00
2018-09-13T15:50:32.534Z,23.20
2018-09-13T15:53:00.076Z,23.20
2018-09-13T15:55:27.560Z,23.20
2018-09-13T15:57:55.036Z,23.30
2018-09-13T16:00:22.530Z,23.10
2018-09-13T16:02:50.012Z,23.20
2018-09-13T16:05:17.478Z,23.10
2018-09-13T16:07:45.105Z,23.10
2018-09-13T16:10:12.612Z,23.10
2018-09-13T16:12:40.611Z,23.00
2018-09-13T16:15:08.065Z,23.00
2018-09-13T16:17:35.496Z,22.90
2018-09-13T16:20:03.100Z,22.80
2018-09-13T16:22:31.516Z,22.80
2018-09-13T16:24:59.197Z,22.60
2018-09-13T16:27:26.801Z,22.60
2018-09-13T16:29:54.408Z,22.60
2018-09-13T16:32:23.201Z,22.50
2018-09-13T16:34:51.561Z,22.50
2018-09-13T16:37:24.580Z,22.60
2018-09-13T16:39:57.669Z,22.50
2018-09-13T16:42:31.675Z,22.50
2018-09-13T16:44:59.159Z,22.30
2018-09-13T16:47:33.467Z,22.30
2018-09-13T16:50:01.762Z,22.30
2018-09-13T16:52:30.062Z,22.20
2018-09-13T16:54:57.591Z,22.20
2018-09-13T16:57:25.041Z,22.20
2018-09-13T16:59:52.745Z,22.20
2018-09-13T17:02:20.372Z,22.20
2018-09-13T17:04:48.861Z,22.10
2018-09-13T17:07:16.313Z,22.10
2018-09-13T17:09:43.786Z,22.10
2018-09-13T17:12:11.204Z,22.00
2018-09-13T17:14:38.636Z,22.10
2018-09-13T17:17:06.076Z,22.00
2018-09-13T17:19:33.478Z,22.00
2018-09-13T17:22:00.936Z,21.90
2018-09-13T17:24:28.345Z,21.90
2018-09-13T17:26:55.823Z,22.00
2018-09-13T17:29:23.361Z,21.90
2018-09-13T17:31:50.796Z,21.90
2018-09-13T17:34:18.877Z,21.90
2018-09-13T17:36:47.868Z,21.80
2018-09-13T17:39:15.360Z,21.80
2018-09-13T17:41:43.134Z,21.80
2018-09-13T17:44:10.596Z,21.80
2018-09-13T17:46:38.597Z,21.80
2018-09-13T17:49:06.045Z,21.80
2018-09-13T17:51:33.448Z,21.70
2018-09-13T17:54:00.966Z,21.50
2018-09-13T17:56:31.469Z,21.60
2018-09-13T17:58:59.007Z,21.40
2018-09-13T18:01:26.415Z,21.40
2018-09-13T18:03:53.895Z,21.40
2018-09-13T18:06:21.921Z,21.40
2018-09-13T18:08:49.458Z,21.40
2018-09-13T18:11:17.019Z,21.30
2018-09-13T18:13:44.493Z,21.40
2018-09-13T18:16:12.009Z,21.40
2018-09-13T18:18:39.512Z,21.50
2018-09-13T18:21:07.133Z,21.50
2018-09-13T18:23:34.555Z,21.50
2018-09-13T18:26:02.097Z,21.50
2018-09-13T18:28:29.596Z,21.50
2018-09-13T18:30:57.043Z,21.50
2018-09-13T18:33:24.546Z,21.50
2018-09-13T18:35:52.004Z,21.40
2018-09-13T18:38:19.443Z,21.40
2018-09-13T18:40:46.945Z,21.40
2018-09-13T18:43:15.572Z,21.40
2018-09-13T18:45:43.176Z,21.40
2018-09-13T18:48:10.758Z,21.40
2018-09-13T18:50:38.393Z,21.10
2018-09-13T18:53:05.924Z,21.00
2018-09-13T18:55:33.366Z,20.90
2018-09-13T18:58:00.789Z,20.90
2018-09-13T19:00:28.349Z,20.80
2018-09-13T19:02:55.859Z,20.80
2018-09-13T19:05:23.476Z,20.80
2018-09-13T19:07:50.859Z,20.80
2018-09-13T19:10:18.286Z,20.70
2018-09-13T19:12:45.792Z,20.70
2018-09-13T19:15:14.289Z,20.60
2018-09-13T19:17:41.797Z,20.50
2018-09-13T19:20:09.288Z,20.50
2018-09-13T19:22:37.766Z,20.50
2018-09-13T19:25:05.204Z,20.40
2018-09-13T19:27:32.657Z,20.50
2018-09-13T19:30:00.118Z,20.50
2018-09-13T19:32:27.621Z,20.40
2018-09-13T19:34:55.052Z,20.40
2018-09-13T19:37:22.497Z,20.40
2018-09-13T19:39:49.954Z,20.40
2018-09-13T19:42:17.744Z,20.40
2018-09-13T19:44:45.169Z,20.30
2018-09-13T19:47:12.724Z,20.40
2018-09-13T19:49:40.228Z,20.30
2018-09-13T19:52:07.844Z,20.30
2018-09-13T19:54:35.370Z,20.30
2018-09-13T19:57:02.768Z,20.20
2018-09-13T19:59:30.291Z,20.30
2018-09-13T20:01:57.909Z,20.20
2018-09-13T20:04:25.356Z,20.30
2018-09-13T20:06:52.808Z,20.40
2018-09-13T20:09:20.232Z,20.30
2018-09-13T20:11:48.105Z,20.30
2018-09-13T20:14:15.739Z,20.40
2018-09-13T20:16:43.220Z,20.40
2018-09-13T20:19:10.811Z,20.40
2018-09-13T20:21:38.283Z,20.30
2018-09-13T20:24:05.780Z,20.40
2018-09-13T20:26:33.301Z,20.30
2018-09-13T20:29:00.761Z,20.20
2018-09-13T20:31:28.145Z,20.20
2018-09-13T20:33:55.709Z,20.30
2018-09-13T20:36:23.573Z,20.30
2018-09-13T20:38:50.986Z,20.30
2018-09-13T20:41:18.500Z,20.40
2018-09-13T20:43:46.027Z,20.40
2018-09-13T20:46:13.482Z,20.40
2018-09-13T20:48:40.960Z,20.30
2018-09-13T20:51:08.395Z,20.30
2018-09-13T20:53:35.867Z,20.30
2018-09-13T20:56:03.288Z,20.20
2018-09-13T20:58:30.942Z,20.20
2018-09-13T21:00:58.388Z,20.20
2018-09-13T21:03:25.805Z,20.20
2018-09-13T21:05:53.224Z,20.30
2018-09-13T21:08:20.661Z,20.10
2018-09-13T21:10:48.101Z,20.10
2018-09-13T21:13:15.636Z,20.10
2018-09-13T21:15:43.208Z,20.10
2018-09-13T21:18:10.731Z,20.10
2018-09-13T21:20:38.225Z,19.90
2018-09-13T21:23:05.659Z,19.80
2018-09-13T21:25:33.096Z,19.80
2018-09-13T21:28:00.567Z,19.80
2018-09-13T21:30:28.056Z,19.80
2018-09-13T21:32:55.589Z,19.70
2018-09-13T21:35:23.046Z,19.80
2018-09-13T21:37:50.465Z,19.90
2018-09-13T21:40:17.937Z,19.80
2018-09-13T21:42:45.386Z,19.80
2018-09-13T21:45:12.814Z,19.70
2018-09-13T21:47:41.276Z,19.80
2018-09-13T21:50:08.884Z,19.80
2018-09-13T21:52:36.354Z,19.80
2018-09-13T21:55:03.904Z,19.60
2018-09-13T21:57:31.333Z,19.50
2018-09-13T21:59:58.740Z,19.40
2018-09-13T22:02:26.161Z,19.40
2018-09-13T22:04:53.717Z,19.10
2018-09-13T22:07:21.241Z,18.90
2018-09-13T22:09:48.645Z,18.80
2018-09-13T22:12:16.182Z,18.80
2018-09-13T22:14:43.612Z,18.70
2018-09-13T22:17:11.465Z,18.60
2018-09-13T22:19:38.920Z,18.60
2018-09-13T22:22:06.357Z,18.60
2018-09-13T22:24:33.909Z,18.70
2018-09-13T22:27:01.337Z,18.40
2018-09-13T22:29:28.824Z,18.30
2018-09-13T22:31:56.255Z,18.20
2018-09-13T22:34:23.661Z,18.20
2018-09-13T22:36:51.072Z,18.20
2018-09-13T22:39:19.260Z,18.10
2018-09-13T22:41:46.696Z,18.10
2018-09-13T22:44:14.139Z,18.20
2018-09-13T22:46:41.785Z,18.10
2018-09-13T22:49:09.199Z,18.10
2018-09-13T22:51:36.625Z,18.00
2018-09-13T22:54:04.062Z,18.10
2018-09-13T22:56:31.544Z,18.10
2018-09-13T22:58:59.264Z,17.90
2018-09-13T23:01:26.754Z,17.80
2018-09-13T23:03:54.301Z,17.80
2018-09-13T23:06:21.750Z,17.80
2018-09-13T23:08:49.197Z,17.80
2018-09-13T23:11:16.629Z,17.70
2018-09-13T23:13:44.056Z,17.70
2018-09-13T23:16:11.644Z,17.80
2018-09-13T23:18:39.101Z,17.70
2018-09-13T23:21:06.741Z,17.60
2018-09-13T23:23:34.180Z,17.70
2018-09-13T23:26:01.630Z,17.60
2018-09-13T23:28:29.037Z,17.60
2018-09-13T23:30:56.477Z,17.70
2018-09-13T23:33:23.922Z,17.80
2018-09-13T23:35:51.428Z,17.80
2018-09-13T23:38:18.931Z,17.90
2018-09-13T23:40:46.618Z,17.90
2018-09-13T23:43:13.877Z,18.00
2018-09-13T23:45:41.288Z,17.90
2018-09-13T23:48:08.709Z,17.90
2018-09-13T23:50:36.208Z,17.90
2018-09-13T23:53:03.666Z,18.10
2018-09-13T23:55:31.121Z,18.00
2018-09-13T23:57:58.545Z,18.10
